createdAt,value
2019-06-10T00:00:04.825Z,22.88
2019-06-10T00:02:31.700Z,22.86
2019-06-10T00:04:58.275Z,22.85
2019-06-10T00:07:24.867Z,22.84
2019-06-10T00:09:51.491Z,22.82
2019-06-10T00:12:18.059Z,22.81
2019-06-10T00:14:44.664Z,22.80
2019-06-10T00:17:11.253Z,22.79
2019-06-10T00:19:37.871Z,22.78
2019-06-10T00:22:06.491Z,22.75
2019-06-10T00:24:32.778Z,22.72
2019-06-10T00:27:00.285Z,22.69
2019-06-10T00:29:27.686Z,22.68
2019-06-10T00:31:54.293Z,22.66
2019-06-10T00:34:21.052Z,22.64
2019-06-10T00:36:47.686Z,22.62
2019-06-10T00:39:14.350Z,22.58
2019-06-10T00:41:42.882Z,22.57
2019-06-10T00:44:12.315Z,22.55
2019-06-10T00:46:37.560Z,22.52
2019-06-10T00:49:05.866Z,22.50
2019-06-10T00:51:32.507Z,22.48
2019-06-10T00:54:02.013Z,22.45
2019-06-10T00:56:30.707Z,22.43
2019-06-10T00:58:56.655Z,22.40
2019-06-10T01:01:23.227Z,22.36
2019-06-10T01:03:50.918Z,22.34
2019-06-10T01:06:17.706Z,22.32
2019-06-10T01:08:44.283Z,22.29
2019-06-10T01:11:20.234Z,22.28
2019-06-10T01:13:41.258Z,22.25
2019-06-10T01:16:07.526Z,22.24
2019-06-10T01:18:38.362Z,22.21
2019-06-10T01:21:03.777Z,22.20
2019-06-10T01:23:31.068Z,22.18
2019-06-10T01:25:57.774Z,22.16
2019-06-10T01:28:24.338Z,22.15
2019-06-10T01:30:51.671Z,22.12
2019-06-10T01:33:21.065Z,22.10
2019-06-10T01:35:46.820Z,22.09
2019-06-10T01:38:16.212Z,22.05
2019-06-10T01:40:42.426Z,22.03
2019-06-10T01:43:11.048Z,22.00
2019-06-10T01:45:37.551Z,22.00
2019-06-10T01:48:04.134Z,21.98
2019-06-10T01:50:31.164Z,21.96
2019-06-10T01:52:57.933Z,21.94
2019-06-10T01:55:24.501Z,21.92
2019-06-10T01:57:51.837Z,21.91
2019-06-10T02:00:25.110Z,21.91
2019-06-10T02:02:47.090Z,21.90
2019-06-10T02:05:16.246Z,21.87
2019-06-10T02:07:41.962Z,21.86
2019-06-10T02:10:09.485Z,21.85
2019-06-10T02:12:36.870Z,21.83
2019-06-10T02:15:03.438Z,21.81
2019-06-10T02:17:31.436Z,21.80
2019-06-10T02:19:58.114Z,21.77
2019-06-10T02:22:24.721Z,21.75
2019-06-10T02:24:51.385Z,21.72
2019-06-10T02:27:19.538Z,21.70
2019-06-10T02:29:46.316Z,21.69
2019-06-10T02:32:17.505Z,21.67
2019-06-10T02:34:53.207Z,21.66
2019-06-10T02:37:09.516Z,21.64
2019-06-10T02:39:39.070Z,21.64
2019-06-10T02:42:04.804Z,21.61
2019-06-10T02:44:36.442Z,21.59
2019-06-10T02:47:03.160Z,21.56
2019-06-10T02:49:46.258Z,21.55
2019-06-10T02:51:56.486Z,21.51
2019-06-10T02:54:30.415Z,21.48
2019-06-10T02:56:53.849Z,21.46
2019-06-10T02:59:21.545Z,21.43
2019-06-10T03:01:48.154Z,21.40
2019-06-10T03:04:16.345Z,21.39
2019-06-10T03:06:44.848Z,21.38
2019-06-10T03:09:14.096Z,21.37
2019-06-10T03:11:39.727Z,21.36
2019-06-10T03:14:06.470Z,21.35
2019-06-10T03:16:33.159Z,21.35
2019-06-10T03:18:59.835Z,21.35
2019-06-10T03:21:26.424Z,21.35
2019-06-10T03:23:53.193Z,21.35
2019-06-10T03:26:24.353Z,21.35
2019-06-10T03:28:52.052Z,21.35
2019-06-10T03:31:20.569Z,21.35
2019-06-10T03:33:48.078Z,21.35
2019-06-10T03:36:15.958Z,21.35
2019-06-10T03:38:43.363Z,21.37
2019-06-10T03:41:12.258Z,21.38
2019-06-10T03:43:38.368Z,21.38
2019-06-10T03:46:05.010Z,21.38
2019-06-10T03:48:32.928Z,21.39
2019-06-10T03:50:59.730Z,21.39
2019-06-10T03:53:27.328Z,21.41
2019-06-10T03:55:54.635Z,21.42
2019-06-10T03:58:22.067Z,21.45
2019-06-10T04:00:52.097Z,21.47
2019-06-10T04:03:17.880Z,21.49
2019-06-10T04:05:44.486Z,21.51
2019-06-10T04:08:12.591Z,21.53
2019-06-10T04:10:39.262Z,21.55
2019-06-10T04:13:05.889Z,21.57
2019-06-10T04:15:32.729Z,21.58
2019-06-10T04:17:59.422Z,21.60
2019-06-10T04:20:28.336Z,21.64
2019-06-10T04:22:54.307Z,21.66
2019-06-10T04:25:24.638Z,21.69
2019-06-10T04:27:49.284Z,21.71
2019-06-10T04:30:16.673Z,21.75
2019-06-10T04:32:43.630Z,21.79
2019-06-10T04:35:12.526Z,21.81
2019-06-10T04:37:38.496Z,21.84
2019-06-10T04:40:05.095Z,21.86
2019-06-10T04:42:32.985Z,21.89
2019-06-10T04:44:59.958Z,21.91
2019-06-10T04:47:27.987Z,21.93
2019-06-10T04:49:54.912Z,21.96
2019-06-10T04:52:23.623Z,22.00
2019-06-10T04:54:49.857Z,22.02
2019-06-10T04:57:16.433Z,22.04
2019-06-10T04:59:43.037Z,22.10
2019-06-10T05:02:09.634Z,22.16
2019-06-10T05:04:36.542Z,22.20
2019-06-10T05:07:03.165Z,22.26
2019-06-10T05:09:31.140Z,22.32
2019-06-10T05:11:58.134Z,22.37
2019-06-10T05:14:25.742Z,22.44
2019-06-10T05:16:54.333Z,22.50
2019-06-10T05:19:24.533Z,22.55
2019-06-10T05:21:49.414Z,22.62
2019-06-10T05:24:16.058Z,22.68
2019-06-10T05:26:42.829Z,22.75
2019-06-10T05:29:11.927Z,22.81
2019-06-10T05:31:37.907Z,22.86
2019-06-10T05:34:04.498Z,22.90
2019-06-10T05:36:34.537Z,22.95
2019-06-10T05:38:59.422Z,23.00
2019-06-10T05:41:27.859Z,23.06
2019-06-10T05:43:54.381Z,23.12
2019-06-10T05:46:22.767Z,23.18
2019-06-10T05:48:49.315Z,23.24
2019-06-10T05:51:15.973Z,23.32
2019-06-10T05:53:45.749Z,23.41
2019-06-10T05:56:12.954Z,23.50
2019-06-10T05:58:48.374Z,23.58
2019-06-10T06:01:14.979Z,23.65
2019-06-10T06:03:43.932Z,23.73
2019-06-10T06:06:12.310Z,23.81
2019-06-10T06:08:38.212Z,23.89
2019-06-10T06:11:04.794Z,23.97
2019-06-10T06:13:33.921Z,24.05
2019-06-10T06:15:59.743Z,24.12
2019-06-10T06:18:26.330Z,24.21
2019-06-10T06:20:52.948Z,24.28
2019-06-10T06:23:19.643Z,24.36
2019-06-10T06:25:48.275Z,24.43
2019-06-10T06:28:16.294Z,24.50
2019-06-10T06:30:43.044Z,24.56
2019-06-10T06:33:09.648Z,24.63
2019-06-10T06:35:42.750Z,24.71
2019-06-10T06:38:04.589Z,24.77
2019-06-10T06:40:34.321Z,24.86
2019-06-10T06:42:59.504Z,24.94
2019-06-10T06:45:27.606Z,25.01
2019-06-10T06:47:54.340Z,25.07
2019-06-10T06:50:25.417Z,25.14
2019-06-10T06:53:19.055Z,25.21
2019-06-10T06:55:17.613Z,25.27
2019-06-10T06:57:44.225Z,25.33
2019-06-10T07:00:37.388Z,25.38
2019-06-10T07:02:40.903Z,25.44
2019-06-10T07:05:07.521Z,25.49
2019-06-10T07:07:35.411Z,25.57
2019-06-10T07:10:03.379Z,25.62
2019-06-10T07:12:31.371Z,25.69
2019-06-10T07:14:58.634Z,25.76
2019-06-10T07:17:25.201Z,25.81
2019-06-10T07:19:52.909Z,25.88
2019-06-10T07:22:19.745Z,25.92
2019-06-10T07:24:47.552Z,26.00
2019-06-10T07:27:14.519Z,26.05
2019-06-10T07:29:45.382Z,26.10
2019-06-10T07:32:09.416Z,26.19
2019-06-10T07:34:37.122Z,26.27
2019-06-10T07:37:04.368Z,26.35
2019-06-10T07:39:33.716Z,26.44
2019-06-10T07:41:59.286Z,26.52
2019-06-10T07:44:27.610Z,26.63
2019-06-10T07:46:54.196Z,26.71
2019-06-10T07:49:23.619Z,26.80
2019-06-10T07:51:49.117Z,26.89
2019-06-10T07:54:15.727Z,26.97
2019-06-10T07:56:49.799Z,27.05
2019-06-10T07:59:12.959Z,27.14
2019-06-10T08:01:45.919Z,27.21
2019-06-10T08:04:07.281Z,27.29
2019-06-10T08:06:36.103Z,27.37
2019-06-10T08:09:02.394Z,27.46
2019-06-10T08:11:30.355Z,27.54
2019-06-10T08:13:56.985Z,27.64
2019-06-10T08:16:23.869Z,27.75
2019-06-10T08:19:17.194Z,27.85
2019-06-10T08:21:18.874Z,27.95
2019-06-10T08:23:47.416Z,28.06
2019-06-10T08:26:13.799Z,28.15
2019-06-10T08:28:41.754Z,28.28
2019-06-10T08:31:08.728Z,28.37
2019-06-10T08:33:35.332Z,28.46
2019-06-10T08:36:03.919Z,28.57
2019-06-10T08:38:32.712Z,28.66
2019-06-10T08:40:58.567Z,28.78
2019-06-10T08:43:25.167Z,28.87
2019-06-10T08:45:53.023Z,29.00
2019-06-10T08:48:22.554Z,29.12
2019-06-10T08:50:49.998Z,29.25
2019-06-10T08:53:18.254Z,29.37
2019-06-10T08:55:47.795Z,29.48
2019-06-10T08:58:13.568Z,29.61
2019-06-10T09:00:41.131Z,29.71
2019-06-10T09:03:09.192Z,29.82
2019-06-10T09:05:35.873Z,29.93
2019-06-10T09:08:03.296Z,30.04
2019-06-10T09:10:33.782Z,30.14
2019-06-10T09:12:59.397Z,30.25
2019-06-10T09:15:25.978Z,30.37
2019-06-10T09:17:56.141Z,30.46
2019-06-10T09:20:23.072Z,30.59
2019-06-10T09:23:10.879Z,30.69
2019-06-10T09:25:17.570Z,30.80
2019-06-10T09:27:47.479Z,30.91
2019-06-10T09:30:13.460Z,31.00
2019-06-10T09:32:42.651Z,31.10
2019-06-10T09:35:08.779Z,31.20
2019-06-10T09:37:35.465Z,31.31
2019-06-10T09:40:03.464Z,31.44
2019-06-10T09:42:30.190Z,31.57
2019-06-10T09:44:56.898Z,31.69
2019-06-10T09:47:23.455Z,31.84
2019-06-10T09:49:51.397Z,31.97
2019-06-10T09:52:18.353Z,32.17
2019-06-10T09:54:47.968Z,32.40
2019-06-10T09:57:13.297Z,32.70
2019-06-10T09:59:41.742Z,33.06
2019-06-10T10:02:08.171Z,33.53
2019-06-10T10:04:37.415Z,34.05
2019-06-10T10:07:03.253Z,34.57
2019-06-10T10:09:29.883Z,35.13
2019-06-10T10:11:56.483Z,35.68
2019-06-10T10:14:23.160Z,36.19
2019-06-10T10:16:56.963Z,36.76
2019-06-10T10:19:18.145Z,37.41
2019-06-10T10:21:46.898Z,38.18
2019-06-10T10:24:15.022Z,38.98
2019-06-10T10:26:43.361Z,39.88
2019-06-10T10:29:09.696Z,40.82
2019-06-10T10:31:36.286Z,41.77
2019-06-10T10:34:02.971Z,42.73
2019-06-10T10:36:29.638Z,43.67
2019-06-10T10:38:56.246Z,44.53
2019-06-10T10:41:23.467Z,45.34
2019-06-10T10:43:55.431Z,46.11
2019-06-10T10:46:19.073Z,46.86
2019-06-10T10:48:46.978Z,47.55
2019-06-10T10:51:13.732Z,48.20
2019-06-10T10:53:46.570Z,48.84
2019-06-10T10:56:12.886Z,49.44
2019-06-10T10:58:39.404Z,50.06
2019-06-10T11:01:06.022Z,50.61
2019-06-10T11:03:33.651Z,51.13
2019-06-10T11:06:02.562Z,51.62
2019-06-10T11:08:29.132Z,52.08
2019-06-10T11:11:00.599Z,52.50
2019-06-10T11:13:24.096Z,52.87
2019-06-10T11:15:54.711Z,53.27
2019-06-10T11:18:19.040Z,53.66
2019-06-10T11:20:45.654Z,54.02
2019-06-10T11:23:12.477Z,54.34
2019-06-10T11:25:39.203Z,54.61
2019-06-10T11:28:06.466Z,54.55
2019-06-10T11:30:33.258Z,54.42
2019-06-10T11:33:03.075Z,54.48
2019-06-10T11:35:28.472Z,54.63
2019-06-10T11:37:58.218Z,54.83
2019-06-10T11:40:24.964Z,55.05
2019-06-10T11:42:56.359Z,55.33
2019-06-10T11:45:22.256Z,55.68
2019-06-10T11:47:49.358Z,56.03
2019-06-10T11:50:16.117Z,56.02
2019-06-10T11:52:43.343Z,56.33
2019-06-10T11:55:16.450Z,56.69
2019-06-10T11:57:38.460Z,57.08
2019-06-10T12:00:13.610Z,57.48
2019-06-10T12:02:33.380Z,57.87
2019-06-10T12:05:03.259Z,58.34
2019-06-10T12:07:28.467Z,58.83
2019-06-10T12:09:57.661Z,59.31
2019-06-10T12:12:23.338Z,59.74
2019-06-10T12:14:54.789Z,60.12
2019-06-10T12:17:40.054Z,60.46
2019-06-10T12:19:46.620Z,60.83
2019-06-10T12:22:13.516Z,61.15
2019-06-10T12:24:43.008Z,61.47
2019-06-10T12:27:08.536Z,61.79
2019-06-10T12:29:35.137Z,62.07
2019-06-10T12:32:06.946Z,62.30
2019-06-10T12:34:33.008Z,62.55
2019-06-10T12:37:07.475Z,62.81
2019-06-10T12:39:26.855Z,63.03
2019-06-10T12:41:57.565Z,63.25
2019-06-10T12:44:22.796Z,63.50
2019-06-10T12:46:54.906Z,63.75
2019-06-10T12:49:20.881Z,64.00
2019-06-10T12:51:47.488Z,64.20
2019-06-10T12:54:14.061Z,64.31
2019-06-10T12:56:42.352Z,64.46
2019-06-10T12:59:10.101Z,64.61
2019-06-10T13:01:36.877Z,64.77
2019-06-10T13:04:07.118Z,64.14
2019-06-10T13:06:32.437Z,64.24
2019-06-10T13:08:59.692Z,64.41
2019-06-10T13:11:27.476Z,64.49
2019-06-10T13:13:54.054Z,64.52
2019-06-10T13:16:20.639Z,64.60
2019-06-10T13:18:47.242Z,64.66
2019-06-10T13:21:17.546Z,64.67
2019-06-10T13:23:43.161Z,64.71
2019-06-10T13:26:15.742Z,64.72
2019-06-10T13:28:38.566Z,64.62
2019-06-10T13:31:07.935Z,64.48
2019-06-10T13:33:33.470Z,64.30
2019-06-10T13:36:00.915Z,64.00
2019-06-10T13:38:27.695Z,63.73
2019-06-10T13:40:54.308Z,63.50
2019-06-10T13:43:23.747Z,63.23
2019-06-10T13:45:50.385Z,62.95
2019-06-10T13:48:17.097Z,62.67
2019-06-10T13:50:43.662Z,62.35
2019-06-10T13:53:13.436Z,62.02
2019-06-10T13:55:41.053Z,61.68
2019-06-10T13:58:09.553Z,61.29
2019-06-10T14:00:42.842Z,60.88
2019-06-10T14:03:09.214Z,60.46
2019-06-10T14:05:34.463Z,60.04
2019-06-10T14:08:03.467Z,59.59
2019-06-10T14:10:29.335Z,59.14
2019-06-10T14:12:55.997Z,58.66
2019-06-10T14:15:22.774Z,58.18
2019-06-10T14:17:49.536Z,57.65
2019-06-10T14:20:16.112Z,57.03
2019-06-10T14:22:43.337Z,56.36
2019-06-10T14:25:11.387Z,55.50
2019-06-10T14:27:38.303Z,54.46
2019-06-10T14:30:06.246Z,53.27
2019-06-10T14:32:33.311Z,52.03
2019-06-10T14:34:59.876Z,50.82
2019-06-10T14:37:38.073Z,49.70
2019-06-10T14:39:54.812Z,48.64
2019-06-10T14:42:23.105Z,47.66
2019-06-10T14:44:49.872Z,46.76
2019-06-10T14:47:16.891Z,45.95
2019-06-10T14:49:43.728Z,45.22
2019-06-10T14:52:13.476Z,44.57
2019-06-10T14:54:38.792Z,43.97
2019-06-10T14:57:05.481Z,43.40
2019-06-10T14:59:32.075Z,42.86
2019-06-10T15:04:33.014Z,41.83
2019-06-10T15:06:59.242Z,41.37
2019-06-10T15:09:26.029Z,40.94
2019-06-10T15:11:52.761Z,40.54
2019-06-10T15:14:20.372Z,40.16
2019-06-10T15:16:48.107Z,39.78
2019-06-10T15:19:21.874Z,39.41
2019-06-10T15:21:43.086Z,39.06
2019-06-10T15:24:09.918Z,38.75
2019-06-10T15:26:36.635Z,38.47
2019-06-10T15:29:03.258Z,38.21
2019-06-10T15:31:29.826Z,37.97
2019-06-10T15:33:56.448Z,37.76
2019-06-10T15:36:24.274Z,37.56
2019-06-10T15:38:52.575Z,37.39
2019-06-10T15:41:21.348Z,37.20
2019-06-10T15:43:47.593Z,37.06
2019-06-10T15:46:15.846Z,36.92
2019-06-10T15:48:43.088Z,36.79
2019-06-10T15:51:11.034Z,36.67
2019-06-10T15:53:38.396Z,36.52
2019-06-10T15:56:14.477Z,36.40
2019-06-10T15:58:33.348Z,36.30
2019-06-10T16:01:02.531Z,36.20
2019-06-10T16:03:28.289Z,36.11
2019-06-10T16:05:54.862Z,36.01
2019-06-10T16:08:22.514Z,35.91
2019-06-10T16:10:49.426Z,35.82
2019-06-10T16:13:16.431Z,35.71
2019-06-10T16:15:43.519Z,35.64
2019-06-10T16:18:10.281Z,35.55
2019-06-10T16:20:36.862Z,35.47
2019-06-10T16:23:03.448Z,35.37
2019-06-10T16:25:30.022Z,35.26
2019-06-10T16:27:56.625Z,35.17
2019-06-10T16:30:25.875Z,35.08
2019-06-10T16:32:53.046Z,34.98
2019-06-10T16:35:21.482Z,34.90
2019-06-10T16:37:48.172Z,34.80
2019-06-10T16:40:15.179Z,34.70
2019-06-10T16:42:43.082Z,34.60
2019-06-10T16:45:09.800Z,34.51
2019-06-10T16:47:36.396Z,34.40
2019-06-10T16:50:03.378Z,34.31
2019-06-10T16:52:30.399Z,34.23
2019-06-10T16:54:57.170Z,34.13
2019-06-10T16:57:25.545Z,34.06
2019-06-10T16:59:52.151Z,33.98
2019-06-10T17:02:19.193Z,33.91
2019-06-10T17:04:47.611Z,33.84
2019-06-10T17:07:14.184Z,33.72
2019-06-10T17:09:42.177Z,33.63
2019-06-10T17:12:08.887Z,33.53
2019-06-10T17:14:35.476Z,33.43
2019-06-10T17:17:03.517Z,33.34
2019-06-10T17:19:33.165Z,33.26
2019-06-10T17:21:58.843Z,33.19
2019-06-10T17:24:27.273Z,33.10
2019-06-10T17:26:53.802Z,33.02
2019-06-10T17:29:22.797Z,32.93
2019-06-10T17:31:48.702Z,32.85
2019-06-10T17:34:15.303Z,32.75
2019-06-10T17:36:42.656Z,32.66
2019-06-10T17:39:09.535Z,32.58
2019-06-10T17:41:36.113Z,32.50
2019-06-10T17:44:02.813Z,32.41
2019-06-10T17:46:30.669Z,32.35
2019-06-10T17:48:57.647Z,32.27
2019-06-10T17:51:26.127Z,32.20
2019-06-10T17:53:53.120Z,32.12
2019-06-10T17:56:22.618Z,32.04
2019-06-10T17:58:56.823Z,31.97
2019-06-10T18:01:16.499Z,31.90
2019-06-10T18:03:43.193Z,31.83
2019-06-10T18:06:09.760Z,31.76
2019-06-10T18:08:36.747Z,31.69
2019-06-10T18:11:04.268Z,31.62
2019-06-10T18:13:33.131Z,31.55
2019-06-10T18:15:59.216Z,31.49
2019-06-10T18:18:26.374Z,31.41
2019-06-10T18:20:53.738Z,31.33
2019-06-10T18:23:22.905Z,31.27
2019-06-10T18:25:49.116Z,31.19
2019-06-10T18:28:15.695Z,31.12
2019-06-10T18:30:43.527Z,31.04
2019-06-10T18:33:10.334Z,30.98
2019-06-10T18:35:37.664Z,30.89
2019-06-10T18:38:04.431Z,30.82
2019-06-10T18:40:31.651Z,30.75
2019-06-10T18:42:58.382Z,30.69
2019-06-10T18:45:24.995Z,30.61
2019-06-10T18:47:52.992Z,30.55
2019-06-10T18:50:21.978Z,30.47
2019-06-10T18:52:48.290Z,30.40
2019-06-10T18:55:14.977Z,30.32
2019-06-10T18:57:42.577Z,30.24
2019-06-10T19:00:11.977Z,30.18
2019-06-10T19:02:38.616Z,30.09
2019-06-10T19:05:05.317Z,30.02
2019-06-10T19:07:33.839Z,29.95
2019-06-10T19:10:02.351Z,29.88
2019-06-10T19:12:29.180Z,29.80
2019-06-10T19:14:55.894Z,29.74
2019-06-10T19:17:23.070Z,29.66
2019-06-10T19:19:49.962Z,29.61
2019-06-10T19:22:16.595Z,29.53
2019-06-10T19:24:44.758Z,29.47
2019-06-10T19:27:11.544Z,29.41
2019-06-10T19:29:45.438Z,29.33
2019-06-10T19:32:06.568Z,29.28
2019-06-10T19:34:33.409Z,29.21
2019-06-10T19:37:02.445Z,29.15
2019-06-10T19:39:28.383Z,29.09
2019-06-10T19:41:54.988Z,29.02
2019-06-10T19:44:23.409Z,28.96
2019-06-10T19:46:52.222Z,28.88
2019-06-10T19:49:24.422Z,28.82
2019-06-10T19:51:52.658Z,28.77
2019-06-10T19:54:19.861Z,28.70
2019-06-10T19:56:46.991Z,28.64
2019-06-10T19:59:13.757Z,28.59
2019-06-10T20:01:41.875Z,28.54
2019-06-10T20:04:08.806Z,28.49
2019-06-10T20:06:35.762Z,28.45
2019-06-10T20:09:02.776Z,28.39
2019-06-10T20:11:29.440Z,28.34
2019-06-10T20:13:56.034Z,28.28
2019-06-10T20:16:22.612Z,28.22
2019-06-10T20:18:49.861Z,28.17
2019-06-10T20:21:16.512Z,28.12
2019-06-10T20:23:45.741Z,28.07
2019-06-10T20:26:12.129Z,28.01
2019-06-10T20:28:38.832Z,27.94
2019-06-10T20:31:05.487Z,27.88
2019-06-10T20:33:36.137Z,27.83
2019-06-10T20:36:03.471Z,27.78
2019-06-10T20:38:28.828Z,27.74
2019-06-10T20:40:55.447Z,27.70
2019-06-10T20:43:22.417Z,27.65
2019-06-10T20:45:50.053Z,27.59
2019-06-10T20:48:16.657Z,27.55
2019-06-10T20:50:44.340Z,27.52
2019-06-10T20:53:17.643Z,27.48
2019-06-10T20:55:46.701Z,27.47
2019-06-10T20:58:08.248Z,27.44
2019-06-10T21:00:35.062Z,27.41
2019-06-10T21:03:03.207Z,27.39
2019-06-10T21:05:29.965Z,27.37
2019-06-10T21:07:56.570Z,27.36
2019-06-10T21:10:23.207Z,27.33
2019-06-10T21:12:50.927Z,27.32
2019-06-10T21:15:17.563Z,27.29
2019-06-10T21:17:45.850Z,27.27
2019-06-10T21:20:12.487Z,27.24
2019-06-10T21:22:40.370Z,27.23
2019-06-10T21:25:07.501Z,27.21
2019-06-10T21:27:34.072Z,27.19
2019-06-10T21:30:04.408Z,27.17
2019-06-10T21:32:29.070Z,27.15
2019-06-10T21:34:55.693Z,27.12
2019-06-10T21:37:22.694Z,27.10
2019-06-10T21:39:50.717Z,27.07
2019-06-10T21:42:17.885Z,27.05
2019-06-10T21:44:45.824Z,27.04
2019-06-10T21:47:12.931Z,27.02
2019-06-10T21:49:39.800Z,27.01
2019-06-10T21:52:06.476Z,26.98
2019-06-10T21:54:33.164Z,26.96
2019-06-10T21:56:59.736Z,26.95
2019-06-10T21:59:26.454Z,26.92
2019-06-10T22:01:53.371Z,26.89
2019-06-10T22:04:22.350Z,26.87
2019-06-10T22:06:49.573Z,26.85
2019-06-10T22:09:16.219Z,26.82
2019-06-10T22:11:43.866Z,26.80
2019-06-10T22:14:12.095Z,26.79
2019-06-10T22:16:38.847Z,26.76
2019-06-10T22:19:05.494Z,26.73
2019-06-10T22:21:32.631Z,26.70
2019-06-10T22:23:59.305Z,26.67
2019-06-10T22:26:25.911Z,26.64
2019-06-10T22:28:55.416Z,26.60
2019-06-10T22:31:23.527Z,26.57
2019-06-10T22:33:49.510Z,26.55
2019-06-10T22:36:16.167Z,26.50
2019-06-10T22:38:42.777Z,26.46
2019-06-10T22:41:09.465Z,26.43
2019-06-10T22:43:36.035Z,26.39
2019-06-10T22:46:04.068Z,26.35
2019-06-10T22:48:33.210Z,26.31
2019-06-10T22:50:59.560Z,26.27
2019-06-10T22:53:26.301Z,26.24
2019-06-10T22:55:53.538Z,26.19
2019-06-10T22:58:23.684Z,26.14
2019-06-10T23:00:49.995Z,26.10
2019-06-10T23:03:17.130Z,26.08
2019-06-10T23:05:43.728Z,26.04
2019-06-10T23:08:12.426Z,26.00
2019-06-10T23:10:38.623Z,25.98
2019-06-10T23:13:05.228Z,25.95
2019-06-10T23:15:32.319Z,25.92
2019-06-10T23:18:00.274Z,25.90
2019-06-10T23:20:26.943Z,25.87
2019-06-10T23:22:56.121Z,25.84
2019-06-10T23:25:22.204Z,25.83
2019-06-10T23:27:50.059Z,25.80
2019-06-10T23:30:16.850Z,25.77
2019-06-10T23:32:43.427Z,25.76
2019-06-10T23:35:12.141Z,25.73
2019-06-10T23:37:38.335Z,25.71
2019-06-10T23:40:04.911Z,25.70
2019-06-10T23:42:32.219Z,25.67
2019-06-10T23:44:59.210Z,25.64
2019-06-10T23:47:25.940Z,25.60
2019-06-10T23:49:53.493Z,25.58
2019-06-10T23:52:22.163Z,25.56
2019-06-10T23:54:48.608Z,25.50
2019-06-10T23:57:15.183Z,25.47
2019-06-10T23:59:42.764Z,25.43
